Time;durP1;ratioP1;P1;durP2;ratioP2;P2;SDS_P1;SDS_P2;PMS_P1;PMS_P2;Temp;Humidity;BMP_temperature;BMP_pressure;BME280_temperature;BME280_humidity;BME280_pressure;Samples;Min_cycle;Max_cycle;Signal;HPM_P1;HPM_P2
2023/05/02 00:01:36;;;;;;;31.98;15.23;;;;;;;11.10;89.25;101897.91;5008682;28;20053;-69
2023/05/02 00:04:02;;;;;;;33.47;15.00;;;;;;;11.13;88.55;101901.31;5007372;28;20057;-67
2023/05/02 00:06:28;;;;;;;33.20;15.27;;;;;;;11.12;88.83;101898.69;4990626;28;20111;-67
2023/05/02 00:08:54;;;;;;;33.08;15.55;;;;;;;11.12;89.17;101898.69;4988990;28;20166;-68
2023/05/02 00:11:20;;;;;;;26.05;15.10;;;;;;;11.04;89.29;101896.41;4989297;28;20472;-67
2023/05/02 00:13:45;;;;;;;32.35;14.32;;;;;;;11.04;90.59;101907.28;4989322;28;20379;-69
2023/05/02 00:16:10;;;;;;;29.83;14.35;;;;;;;10.99;90.27;101904.84;4989421;28;20458;-68
2023/05/02 00:18:36;;;;;;;30.25;15.05;;;;;;;10.98;90.65;101915.81;4989325;28;20430;-68
2023/05/02 00:21:02;;;;;;;34.85;15.35;;;;;;;10.98;90.78;101919.41;4987761;28;20041;-69
2023/05/02 00:23:27;;;;;;;36.00;16.73;;;;;;;10.94;90.95;101919.69;4988824;28;20493;-68
2023/05/02 00:25:52;;;;;;;37.67;15.77;;;;;;;10.96;90.21;101920.50;4987634;28;20100;-68
2023/05/02 00:28:18;;;;;;;27.38;13.45;;;;;;;10.95;89.93;101925.03;4989850;28;20109;-68
2023/05/02 00:30:44;;;;;;;30.85;15.07;;;;;;;10.92;90.69;101919.78;4996106;28;20092;-69
2023/05/02 00:33:11;;;;;;;31.05;14.48;;;;;;;10.92;90.52;101927.06;5002402;28;20308;-68
2023/05/02 00:35:37;;;;;;;39.85;16.45;;;;;;;10.84;92.64;101927.50;4987454;28;20042;-69
2023/05/02 00:38:02;;;;;;;35.00;15.38;;;;;;;10.83;91.91;101933.03;4988047;28;20049;-68
2023/05/02 00:40:27;;;;;;;34.83;16.45;;;;;;;10.76;92.51;101934.31;4988706;28;20042;-68
2023/05/02 00:42:53;;;;;;;27.42;12.38;;;;;;;10.69;90.99;101933.81;4997726;28;20113;-69
2023/05/02 00:45:18;;;;;;;25.50;12.70;;;;;;;10.59;91.39;101933.44;4989651;28;20458;-69
2023/05/02 00:47:44;;;;;;;26.35;12.40;;;;;;;10.55;90.93;101925.53;4987402;28;20355;-69
2023/05/02 00:50:09;;;;;;;26.58;11.80;;;;;;;10.47;91.03;101934.09;4992931;28;20265;-69
2023/05/02 00:52:36;;;;;;;24.65;13.23;;;;;;;10.41;91.34;101938.03;4977003;28;20463;-68
2023/05/02 00:55:02;;;;;;;25.98;12.57;;;;;;;10.34;91.74;101935.72;4992801;28;20042;-69
2023/05/02 00:57:27;;;;;;;23.83;11.48;;;;;;;10.25;92.71;101936.22;4995675;28;20044;-67
2023/05/02 00:59:53;;;;;;;19.70;11.10;;;;;;;10.25;91.86;101938.94;4999794;28;20482;-69
2023/05/02 01:02:28;;;;;;;21.27;10.68;;;;;;;10.27;91.47;101939.75;5008149;28;20049;-69
2023/05/02 01:05:26;;;;;;;20.85;11.05;;;;;;;10.25;90.96;101930.78;4989557;28;20047;-69
2023/05/02 01:08:18;;;;;;;23.90;10.10;;;;;;;10.17;91.36;101939.31;4989769;28;20490;-70
2023/05/02 01:11:03;;;;;;;21.58;10.23;;;;;;;10.10;91.11;101938.75;4988963;28;20490;-69
2023/05/02 01:13:32;;;;;;;21.63;9.63;;;;;;;10.04;91.76;101938.22;4994768;28;20108;-68
2023/05/02 01:16:00;;;;;;;23.67;10.98;;;;;;;10.02;92.73;101945.56;5009990;28;20113;-68
2023/05/02 01:18:31;;;;;;;19.55;10.05;;;;;;;9.99;92.54;101937.56;5009854;28;20121;-69
2023/05/02 01:21:00;;;;;;;18.80;8.40;;;;;;;10.00;91.28;101939.34;4999997;28;20046;-68
2023/05/02 01:23:30;;;;;;;15.90;8.57;;;;;;;10.01;91.06;101941.09;4988520;28;20431;-68
2023/05/02 01:26:09;;;;;;;14.82;7.20;;;;;;;9.96;91.58;101928.59;5008938;28;20112;-68
2023/05/02 01:29:08;;;;;;;20.73;7.50;;;;;;;9.96;90.91;101938.59;5000833;28;20050;-69
2023/05/02 01:31:40;;;;;;;15.52;7.88;;;;;;;9.93;91.48;101933.31;4981098;28;20506;-68
2023/05/02 01:34:09;;;;;;;15.07;7.22;;;;;;;9.92;91.32;101928.84;5004965;28;20145;-68
2023/05/02 01:36:36;;;;;;;17.05;8.38;;;;;;;9.91;91.86;101932.53;4990402;28;20025;-69
2023/05/02 01:39:03;;;;;;;14.02;7.68;;;;;;;9.89;91.64;101929.91;4992129;28;20041;-68
2023/05/02 01:41:31;;;;;;;15.95;7.90;;;;;;;9.90;91.95;101937.09;4989814;28;20038;-68
2023/05/02 01:43:59;;;;;;;17.55;7.93;;;;;;;9.92;91.92;101950.59;4989671;28;20080;-68
2023/05/02 01:46:35;;;;;;;17.23;8.70;;;;;;;9.91;91.34;101944.28;4988563;28;20442;-68
2023/05/02 01:49:04;;;;;;;16.80;8.30;;;;;;;9.97;91.81;101945.78;4989076;28;20542;-68
2023/05/02 01:51:32;;;;;;;16.88;7.63;;;;;;;10.01;91.19;101944.69;4987220;28;20068;-69
2023/05/02 01:54:00;;;;;;;18.83;8.40;;;;;;;10.02;91.92;101951.88;4989925;28;20038;-68
2023/05/02 01:56:28;;;;;;;14.82;8.15;;;;;;;10.05;92.07;101953.56;4988076;28;20034;-68
2023/05/02 01:58:55;;;;;;;17.17;8.40;;;;;;;10.05;92.52;101954.44;4989256;28;20038;-69
2023/05/02 02:01:26;;;;;;;18.45;8.15;;;;;;;10.07;91.92;101954.34;5008142;28;20122;-68
2023/05/02 02:03:55;;;;;;;14.05;7.93;;;;;;;10.08;92.23;101964.28;4998341;28;20562;-68
2023/05/02 02:06:21;;;;;;;19.08;9.13;;;;;;;10.10;92.10;101967.78;4987153;28;20062;-68
2023/05/02 02:08:47;;;;;;;17.17;8.57;;;;;;;10.12;92.26;101968.59;4990037;28;20030;-68
2023/05/02 02:11:20;;;;;;;16.10;7.80;;;;;;;10.13;91.27;101965.78;4987721;28;20367;-69
2023/05/02 02:13:49;;;;;;;18.08;7.80;;;;;;;10.19;91.33;101973.63;4988978;28;20030;-68
2023/05/02 02:16:23;;;;;;;16.92;9.75;;;;;;;10.18;92.10;101977.31;4993028;28;20048;-68
2023/05/02 02:18:52;;;;;;;17.42;8.82;;;;;;;10.18;92.05;101971.88;4996403;28;20042;-68
2023/05/02 02:21:24;;;;;;;15.57;8.25;;;;;;;10.23;92.03;101977.06;4989022;28;20425;-68
2023/05/02 02:23:52;;;;;;;15.90;8.77;;;;;;;10.25;91.87;101982.44;4988364;28;20494;-68
2023/05/02 02:26:21;;;;;;;17.52;9.10;;;;;;;10.25;91.43;101974.28;4989307;28;20474;-68
2023/05/02 02:28:47;;;;;;;16.10;8.48;;;;;;;10.30;92.29;101985.78;4989817;28;20132;-68
2023/05/02 02:31:13;;;;;;;21.23;9.27;;;;;;;10.27;91.53;101981.41;4987655;28;20080;-69
2023/05/02 02:33:39;;;;;;;17.48;9.88;;;;;;;10.30;92.26;101988.53;4997722;28;20034;-69
2023/05/02 02:36:14;;;;;;;18.25;9.70;;;;;;;10.31;92.24;101984.88;4987026;28;20050;-69
2023/05/02 02:38:59;;;;;;;21.75;11.05;;;;;;;10.29;92.24;101978.59;4988873;28;20042;-69
2023/05/02 02:41:38;;;;;;;18.83;11.25;;;;;;;10.28;93.96;101988.63;4987010;28;20081;-69
2023/05/02 02:44:31;;;;;;;18.27;10.18;;;;;;;10.21;93.86;101993.47;4989193;28;20493;-69
2023/05/02 02:47:07;;;;;;;20.65;10.25;;;;;;;10.15;94.63;101995.63;4988890;28;20046;-69
2023/05/02 02:49:46;;;;;;;20.60;11.30;;;;;;;10.11;94.53;101997.59;4988283;28;20049;-70
2023/05/02 02:52:26;;;;;;;18.45;9.43;;;;;;;10.13;95.31;102000.28;5004766;28;20050;-68
2023/05/02 02:55:19;;;;;;;21.73;11.40;;;;;;;10.09;95.09;101996.81;4987279;28;20057;-68
2023/05/02 02:58:11;;;;;;;27.48;14.10;;;;;;;10.09;94.69;102004.97;4988024;28;20124;-69
2023/05/02 03:00:37;;;;;;;;;;;;;;;10.10;93.40;102005.84;4988674;28;20034;-69
2023/05/02 03:03:05;;;;;;;20.38;12.02;;;;;;;10.08;94.93;102007.78;4986810;28;19925;-69
2023/05/02 03:05:33;;;;;;;26.05;13.02;;;;;;;10.08;94.93;102011.38;4986673;28;20165;-69
2023/05/02 03:07:59;;;;;;;19.98;11.10;;;;;;;10.07;95.50;102012.34;4998749;28;20478;-69
2023/05/02 03:10:25;;;;;;;26.40;14.95;;;;;;;10.10;95.00;102012.16;4986461;28;20121;-70
2023/05/02 03:12:54;;;;;;;23.80;12.98;;;;;;;10.10;94.80;102019.44;4986758;28;20109;-69
2023/05/02 03:15:34;;;;;;;28.80;14.20;;;;;;;10.13;94.94;102027.47;5003264;28;20402;-70
2023/05/02 03:18:00;;;;;;;26.55;13.50;;;;;;;10.10;95.45;102028.47;4987104;28;20431;-68
2023/05/02 03:20:25;;;;;;;25.67;13.70;;;;;;;10.12;95.90;102028.44;4987736;28;20030;-70
2023/05/02 03:22:51;;;;;;;23.52;11.80;;;;;;;10.12;95.43;102031.16;4999034;28;20109;-69
2023/05/02 03:25:17;;;;;;;24.90;12.32;;;;;;;10.12;96.08;102029.31;5006818;28;20486;-69
2023/05/02 03:27:45;;;;;;;22.95;13.32;;;;;;;10.10;96.96;102036.66;5004737;28;20030;-69
2023/05/02 03:30:11;;;;;;;24.52;12.40;;;;;;;10.13;95.77;102033.78;4987511;28;20081;-69
2023/05/02 03:32:36;;;;;;;25.35;11.77;;;;;;;10.13;95.93;102039.22;4986654;28;20057;-69
2023/05/02 03:35:02;;;;;;;19.63;10.57;;;;;;;10.15;96.30;102039.13;4986495;28;20395;-70
2023/05/02 03:37:34;;;;;;;18.83;10.80;;;;;;;10.12;95.98;102033.88;4990455;28;20038;-68
2023/05/02 03:39:59;;;;;;;20.88;9.63;;;;;;;10.09;96.76;102043.03;4986203;28;20485;-70
2023/05/02 03:42:25;;;;;;;17.33;9.88;;;;;;;10.05;96.75;102043.28;4987353;28;20050;-69
2023/05/02 03:44:52;;;;;;;22.27;10.30;;;;;;;10.03;96.78;102046.09;4986479;28;20374;-68
2023/05/02 03:47:18;;;;;;;16.23;10.10;;;;;;;10.03;96.68;102048.81;4986669;28;20030;-70
2023/05/02 03:49:43;;;;;;;18.95;10.05;;;;;;;10.01;98.07;102044.38;4986393;28;20050;-69
2023/05/02 03:52:09;;;;;;;16.67;8.85;;;;;;;10.01;98.21;102047.09;4989218;28;20125;-69
2023/05/02 03:54:35;;;;;;;15.88;8.73;;;;;;;9.97;97.96;102051.81;4996717;28;20452;-68
2023/05/02 03:57:03;;;;;;;20.45;8.70;;;;;;;9.99;98.26;102060.78;5001891;28;20125;-69
2023/05/02 03:59:34;;;;;;;17.00;9.30;;;;;;;9.94;98.23;102060.16;4994531;28;20030;-69
2023/05/02 04:02:03;;;;;;;16.80;7.75;;;;;;;9.94;97.70;102065.59;4985745;28;20049;-69
2023/05/02 04:04:39;;;;;;;14.60;7.55;;;;;;;9.94;97.62;102071.03;4985881;28;20058;-68
2023/05/02 04:07:14;;;;;;;16.13;7.95;;;;;;;9.95;97.19;102073.66;4984310;28;20340;-69
2023/05/02 04:09:40;;;;;;;18.42;7.60;;;;;;;9.94;97.44;102074.63;4995718;28;20041;-68
2023/05/02 04:12:08;;;;;;;11.13;6.72;;;;;;;9.87;97.12;102085.84;4989669;28;20494;-70
2023/05/02 04:14:37;;;;;;;9.05;3.78;;;;;;;9.81;94.49;102092.47;5004585;28;20124;-69
2023/05/02 04:17:03;;;;;;;11.70;4.30;;;;;;;9.68;93.20;102088.59;5006634;28;20507;-70
2023/05/02 04:19:42;;;;;;;13.68;3.97;;;;;;;9.55;93.04;102095.56;5007009;28;20030;-69
2023/05/02 04:22:08;;;;;;;11.98;4.40;;;;;;;9.53;92.66;102089.34;5002041;28;20041;-68
2023/05/02 04:24:37;;;;;;;10.57;3.50;;;;;;;9.49;90.94;102113.06;4990751;28;20030;-69
2023/05/02 04:27:03;;;;;;;7.30;2.85;;;;;;;9.40;88.68;102108.94;5002970;28;20113;-68
2023/05/02 04:29:28;;;;;;;9.40;2.47;;;;;;;9.32;88.14;102124.72;5000737;28;20374;-67
2023/05/02 04:31:53;;;;;;;9.07;2.78;;;;;;;9.26;86.13;102125.00;4986778;28;20489;-69
2023/05/02 04:34:22;;;;;;;9.25;2.20;;;;;;;9.23;86.19;102124.25;4985706;28;20463;-69
2023/05/02 04:36:47;;;;;;;8.15;2.30;;;;;;;9.21;85.53;102137.91;5013566;28;20097;-69
2023/05/02 04:39:18;;;;;;;5.53;2.40;;;;;;;9.16;85.21;102134.53;4986573;28;20446;-69
2023/05/02 04:41:53;;;;;;;5.43;2.22;;;;;;;9.09;85.30;102143.91;4987254;28;20038;-70
2023/05/02 04:44:21;;;;;;;5.13;2.20;;;;;;;9.05;84.12;102135.03;4970765;28;20042;-69
2023/05/02 04:46:47;;;;;;;5.65;2.10;;;;;;;9.00;84.14;102149.72;4985935;28;20038;-70
2023/05/02 04:49:12;;;;;;;4.30;1.80;;;;;;;8.97;84.02;102147.19;4982865;28;20560;-69
2023/05/02 04:51:38;;;;;;;8.65;2.17;;;;;;;8.99;84.53;102150.69;5005146;28;20036;-70
2023/05/02 04:54:03;;;;;;;6.35;1.83;;;;;;;9.03;83.99;102160.47;4999683;28;20521;-69
2023/05/02 04:56:28;;;;;;;12.50;2.65;;;;;;;9.08;83.87;102155.72;4986884;28;20514;-69
2023/05/02 04:58:54;;;;;;;8.32;2.20;;;;;;;9.10;84.78;102161.97;4992001;28;20053;-69
2023/05/02 05:01:22;;;;;;;7.75;2.22;;;;;;;9.11;83.80;102170.03;5005321;28;20035;-69
2023/05/02 05:03:48;;;;;;;11.30;3.15;;;;;;;9.16;84.62;102180.69;5001050;28;20038;-68
2023/05/02 05:06:15;;;;;;;7.63;2.35;;;;;;;9.17;84.08;102167.03;4984622;28;20038;-69
2023/05/02 05:08:44;;;;;;;5.07;2.00;;;;;;;9.22;84.26;102168.66;4985423;28;20521;-69
2023/05/02 05:11:10;;;;;;;4.82;2.10;;;;;;;9.24;84.38;102172.22;4984892;28;20034;-69
2023/05/02 05:13:36;;;;;;;9.40;1.92;;;;;;;9.30;84.35;102185.50;4985151;28;20045;-69
2023/05/02 05:16:03;;;;;;;6.80;2.00;;;;;;;9.36;83.73;102183.38;4985120;28;20167;-69
2023/05/02 05:18:31;;;;;;;5.70;2.10;;;;;;;9.40;83.67;102185.00;4985056;28;20026;-68
2023/05/02 05:20:56;;;;;;;8.30;2.08;;;;;;;9.42;82.72;102191.25;4991029;28;20355;-68
2023/05/02 05:23:22;;;;;;;6.80;1.92;;;;;;;9.42;83.42;102193.09;4989418;28;20058;-68
2023/05/02 05:25:47;;;;;;;6.60;1.88;;;;;;;9.41;83.05;102200.31;4989994;28;20038;-69
2023/05/02 05:28:17;;;;;;;4.43;1.83;;;;;;;9.39;81.36;102204.97;5000792;28;20058;-68
2023/05/02 05:30:42;;;;;;;4.97;2.05;;;;;;;9.40;81.20;102205.84;4995401;28;20042;-69
2023/05/02 05:33:11;;;;;;;9.65;1.77;;;;;;;9.46;79.79;102208.25;5001090;28;20222;-69
2023/05/02 05:35:36;;;;;;;7.07;1.90;;;;;;;9.46;79.58;102208.25;5003444;28;20049;-69
2023/05/02 05:38:02;;;;;;;7.53;2.10;;;;;;;9.45;80.12;102204.69;4994562;28;20048;-69
2023/05/02 05:40:30;;;;;;;4.50;1.48;;;;;;;9.41;79.67;102211.19;5007783;28;20534;-68
2023/05/02 05:42:57;;;;;;;4.00;1.55;;;;;;;9.43;79.90;102227.44;5004173;28;20121;-69
2023/05/02 05:45:27;;;;;;;3.85;1.90;;;;;;;9.32;79.27;102211.63;4988648;28;20521;-69
2023/05/02 05:47:53;;;;;;;5.55;2.00;;;;;;;9.36;78.78;102221.38;4988171;28;20034;-69
2023/05/02 05:50:19;;;;;;;6.55;2.28;;;;;;;9.37;78.55;102219.56;4988631;28;20402;-69
2023/05/02 05:52:45;;;;;;;7.50;1.63;;;;;;;9.37;78.16;102227.69;4987699;28;20038;-69
2023/05/02 05:55:10;;;;;;;4.05;1.40;;;;;;;9.38;78.11;102237.63;4991912;28;20346;-69
2023/05/02 05:57:36;;;;;;;3.10;1.50;;;;;;;9.40;76.93;102235.72;5002177;28;20401;-69
2023/05/02 06:00:03;;;;;;;4.43;2.25;;;;;;;9.49;77.46;102224.44;4989517;28;20038;-69
2023/05/02 06:02:41;;;;;;;4.40;1.52;;;;;;;9.62;75.99;102233.78;4989309;28;20141;-69
2023/05/02 06:05:07;;;;;;;4.68;1.92;;;;;;;9.54;75.71;102237.81;4989358;28;20108;-70
2023/05/02 06:07:33;;;;;;;10.93;1.70;;;;;;;9.50;75.87;102256.06;4998334;28;20042;-68
2023/05/02 06:10:05;;;;;;;4.30;2.30;;;;;;;9.44;76.72;102251.81;5007625;28;20034;-69
2023/05/02 06:12:32;;;;;;;3.30;1.80;;;;;;;9.44;77.77;102265.41;5003600;28;20033;-69
2023/05/02 06:14:57;;;;;;;4.85;1.70;;;;;;;9.45;77.60;102263.56;5000610;28;20034;-68
2023/05/02 06:17:23;;;;;;;6.72;1.90;;;;;;;9.47;76.99;102269.81;5007007;28;20034;-69
2023/05/02 06:19:48;;;;;;;12.43;2.10;;;;;;;9.39;78.20;102262.00;5006025;28;20171;-69
2023/05/02 06:22:14;;;;;;;9.95;2.25;;;;;;;9.53;77.58;102276.81;5003580;28;20054;-69
2023/05/02 06:24:39;;;;;;;7.65;1.83;;;;;;;9.51;77.69;102270.53;4995485;28;20088;-69
2023/05/02 06:27:04;;;;;;;10.63;2.28;;;;;;;9.53;78.20;102282.25;5007670;28;20036;-69
2023/05/02 06:29:30;;;;;;;4.82;1.80;;;;;;;9.66;78.74;102284.34;4989941;28;20064;-68
2023/05/02 06:31:55;;;;;;;9.52;2.78;;;;;;;9.84;77.81;102284.41;5007998;28;20034;-68
2023/05/02 06:34:21;;;;;;;9.10;2.20;;;;;;;9.89;78.26;102287.84;4998340;28;20496;-71
2023/05/02 06:36:47;;;;;;;10.77;2.22;;;;;;;9.90;78.89;102293.19;5006269;28;20961;-68
2023/05/02 06:39:12;;;;;;;5.22;1.92;;;;;;;9.97;78.42;102305.53;5006168;28;20030;-69
2023/05/02 06:41:37;;;;;;;6.97;2.33;;;;;;;10.04;77.58;102305.25;5001968;28;20046;-69
2023/05/02 06:44:03;;;;;;;7.47;2.20;;;;;;;10.12;77.31;102303.94;4997695;28;20073;-69
2023/05/02 06:46:29;;;;;;;8.82;2.25;;;;;;;10.14;76.56;102312.03;5008318;28;20525;-69
2023/05/02 06:48:55;;;;;;;9.73;2.22;;;;;;;10.13;76.14;102324.75;5005628;28;20075;-69
2023/05/02 06:51:21;;;;;;;11.60;2.30;;;;;;;10.16;76.20;102310.97;4988555;28;20046;-69
2023/05/02 06:53:46;;;;;;;7.53;2.40;;;;;;;10.31;77.35;102324.88;4992499;28;20026;-69
2023/05/02 06:56:12;;;;;;;10.85;2.22;;;;;;;10.43;77.49;102325.16;4992150;28;20041;-71
2023/05/02 06:58:37;;;;;;;12.07;2.38;;;;;;;10.59;75.64;102335.31;5001791;28;20022;-68
2023/05/02 07:01:02;;;;;;;11.63;2.50;;;;;;;10.60;74.66;102327.06;4989384;28;20056;-69
2023/05/02 07:03:28;;;;;;;5.57;1.95;;;;;;;10.65;73.18;102333.16;4996740;28;20074;-68
2023/05/02 07:05:53;;;;;;;13.23;2.50;;;;;;;10.75;74.13;102338.16;4988715;28;20137;-69
2023/05/02 07:08:21;;;;;;;10.65;2.50;;;;;;;10.78;72.85;102338.88;4997813;28;20030;-69
2023/05/02 07:10:46;;;;;;;7.30;2.28;;;;;;;10.91;73.34;102336.41;5003551;28;20027;-69
2023/05/02 07:13:12;;;;;;;11.07;2.47;;;;;;;10.93;71.48;102346.28;5003558;28;20064;-70
2023/05/02 07:15:37;;;;;;;10.95;2.75;;;;;;;10.84;73.06;102344.03;4988339;28;20127;-69
2023/05/02 07:18:02;;;;;;;6.95;2.22;;;;;;;10.76;71.79;102353.53;5003974;28;20038;-69
2023/05/02 07:20:28;;;;;;;8.40;2.50;;;;;;;10.77;74.55;102358.00;5006957;28;20033;-69
2023/05/02 07:22:53;;;;;;;6.70;2.08;;;;;;;10.77;72.22;102364.34;4998005;28;20050;-69
2023/05/02 07:25:18;;;;;;;10.68;2.20;;;;;;;10.85;74.19;102358.50;4988385;28;20474;-68
2023/05/02 07:27:44;;;;;;;12.25;2.63;;;;;;;11.11;76.09;102366.28;4988227;28;20610;-69
2023/05/02 07:30:10;;;;;;;8.07;2.58;;;;;;;11.20;73.69;102356.75;4986532;28;20394;-69
2023/05/02 07:32:35;;;;;;;9.75;2.65;;;;;;;11.27;72.12;102363.66;4986495;28;20035;-68
2023/05/02 07:35:00;;;;;;;11.48;2.80;;;;;;;11.15;71.38;102369.72;5002859;28;20462;-68
2023/05/02 07:37:26;;;;;;;5.90;2.17;;;;;;;11.15;71.60;102377.91;4984982;28;20474;-69
2023/05/02 07:39:51;;;;;;;14.32;3.92;;;;;;;11.09;70.95;102386.38;4987867;28;20482;-68
2023/05/02 07:42:17;;;;;;;10.15;2.53;;;;;;;10.96;70.61;102378.81;5003425;28;20042;-70
2023/05/02 07:44:42;;;;;;;13.20;2.28;;;;;;;10.78;73.19;102379.72;4987693;28;20109;-69
2023/05/02 07:47:08;;;;;;;8.52;3.15;;;;;;;10.66;73.37;102386.63;4987632;28;20085;-69
2023/05/02 07:49:33;;;;;;;11.07;2.90;;;;;;;10.56;72.40;102390.75;4987641;28;20038;-68
2023/05/02 07:51:58;;;;;;;11.35;3.05;;;;;;;10.55;75.36;102399.00;4985125;28;20034;-69
2023/05/02 07:54:27;;;;;;;9.90;3.00;;;;;;;10.39;74.96;102393.38;4986393;28;20529;-70
2023/05/02 07:56:52;;;;;;;14.68;3.50;;;;;;;10.22;72.60;102397.75;4993060;28;20096;-69
2023/05/02 07:59:18;;;;;;;8.82;2.72;;;;;;;10.10;70.78;102411.00;4999450;28;20509;-69
2023/05/02 08:01:43;;;;;;;6.13;2.65;;;;;;;9.96;71.65;102400.75;4986033;28;20049;-68
2023/05/02 08:04:10;;;;;;;10.77;2.90;;;;;;;9.92;72.55;102404.56;4986046;28;20061;-68
2023/05/02 08:06:35;;;;;;;7.05;3.42;;;;;;;9.95;74.13;102407.16;5001001;28;20038;-69
2023/05/02 08:09:01;;;;;;;11.07;3.35;;;;;;;10.01;72.33;102409.59;4987425;28;20046;-68
2023/05/02 08:11:26;;;;;;;7.60;2.65;;;;;;;10.09;72.28;102415.56;4987080;28;20061;-69
2023/05/02 08:13:51;;;;;;;7.32;2.63;;;;;;;10.22;73.36;102413.19;4986027;28;20467;-69
2023/05/02 08:16:18;;;;;;;7.40;2.42;;;;;;;10.37;73.96;102419.78;4988042;28;20069;-69
2023/05/02 08:18:43;;;;;;;7.88;2.28;;;;;;;10.47;68.71;102422.00;4987252;28;20501;-69
2023/05/02 08:21:09;;;;;;;7.50;2.58;;;;;;;10.44;69.33;102429.41;4985046;28;20439;-69
2023/05/02 08:23:34;;;;;;;8.60;2.17;;;;;;;10.46;70.74;102424.81;4986431;28;20035;-70
2023/05/02 08:26:00;;;;;;;5.55;2.83;;;;;;;10.46;68.29;102427.53;4987001;28;20062;-69
2023/05/02 08:28:25;;;;;;;5.65;2.38;;;;;;;10.45;67.72;102436.66;5001674;28;20062;-69
2023/05/02 08:30:51;;;;;;;16.02;2.85;;;;;;;10.50;69.39;102421.00;5001686;28;20029;-70
2023/05/02 08:33:16;;;;;;;7.07;2.53;;;;;;;10.78;70.89;102439.63;5005738;28;20048;-69
2023/05/02 08:35:41;;;;;;;5.10;3.55;;;;;;;11.02;69.66;102433.94;5006108;28;20057;-69
2023/05/02 08:38:07;;;;;;;9.50;2.60;;;;;;;11.17;70.50;102444.94;4997258;28;20374;-69
2023/05/02 08:40:35;;;;;;;5.82;2.72;;;;;;;11.26;65.82;102445.47;4986803;28;20052;-69
2023/05/02 08:43:01;;;;;;;6.72;2.35;;;;;;;11.43;67.05;102435.50;4986497;28;20363;-69
2023/05/02 08:45:36;;;;;;;6.10;2.33;;;;;;;11.63;65.43;102442.66;4985752;28;20464;-69
2023/05/02 08:48:05;;;;;;;4.75;2.25;;;;;;;11.84;64.99;102439.78;4986963;28;20061;-69
2023/05/02 08:50:35;;;;;;;11.23;3.30;;;;;;;11.89;61.71;102449.53;4986432;28;20043;-70
2023/05/02 08:53:02;;;;;;;7.18;2.30;;;;;;;11.97;63.79;102444.53;4985932;28;20041;-68
2023/05/02 08:55:27;;;;;;;7.53;2.22;;;;;;;12.32;65.21;102444.50;4986658;28;20380;-70
2023/05/02 08:57:56;;;;;;;6.13;1.90;;;;;;;12.36;61.20;102450.69;4987064;28;20038;-68
2023/05/02 09:00:22;;;;;;;9.18;2.47;;;;;;;11.97;61.27;102457.28;4987055;28;20478;-70
2023/05/02 09:03:06;;;;;;;11.85;2.70;;;;;;;11.87;61.40;102464.19;5004044;28;20070;-68
2023/05/02 09:05:39;;;;;;;8.32;2.50;;;;;;;12.18;61.00;102466.19;5000206;28;20497;-69
2023/05/02 09:08:05;;;;;;;5.22;1.95;;;;;;;12.33;58.69;102459.91;4985934;28;20502;-69
2023/05/02 09:10:35;;;;;;;7.88;2.38;;;;;;;12.68;60.51;102459.81;4987091;28;20093;-69
2023/05/02 09:13:29;;;;;;;8.55;2.78;;;;;;;12.84;60.63;102466.19;4990679;28;20517;-69
2023/05/02 09:16:03;;;;;;;5.53;2.55;;;;;;;12.95;56.24;102473.78;4990699;28;20257;-69
2023/05/02 09:18:31;;;;;;;7.75;2.20;;;;;;;13.07;59.34;102474.94;4990512;28;20048;-69
2023/05/02 09:20:58;;;;;;;9.45;2.17;;;;;;;12.91;59.78;102474.91;4989533;28;20398;-69
2023/05/02 09:23:32;;;;;;;6.05;2.13;;;;;;;12.90;59.73;102474.03;4989650;28;20042;-69
2023/05/02 09:25:58;;;;;;;9.35;2.05;;;;;;;12.67;58.41;102482.63;4988932;28;20100;-69
2023/05/02 09:28:47;;;;;;;5.03;1.80;;;;;;;12.54;58.93;102489.72;4989762;28;20501;-68
2023/05/02 09:31:18;;;;;;;6.80;2.17;;;;;;;12.61;60.30;102489.31;5002777;28;20038;-68
2023/05/02 09:33:44;;;;;;;6.13;1.83;;;;;;;12.62;58.95;102482.00;4989920;28;20070;-68
2023/05/02 09:36:15;;;;;;;6.15;2.55;;;;;;;12.52;60.84;102484.34;4989306;28;20042;-68
2023/05/02 09:38:42;;;;;;;6.30;2.17;;;;;;;12.66;56.51;102489.06;4989530;28;20286;-68
2023/05/02 09:41:08;;;;;;;7.07;2.30;;;;;;;12.73;58.97;102498.69;4989748;28;20041;-69
2023/05/02 09:43:33;;;;;;;7.05;2.42;;;;;;;13.33;61.52;102490.75;4990050;28;20026;-70
2023/05/02 09:46:01;;;;;;;7.03;2.17;;;;;;;13.97;56.31;102502.47;4990027;28;20044;-69
2023/05/02 09:48:29;;;;;;;7.57;2.05;;;;;;;14.02;52.22;102514.03;4989789;28;20042;-69
2023/05/02 09:50:55;;;;;;;3.28;1.80;;;;;;;13.77;52.70;102503.69;4989388;28;20081;-68
2023/05/02 09:53:23;;;;;;;6.22;2.15;;;;;;;13.53;53.68;102509.63;4989777;28;20088;-70
2023/05/02 09:55:58;;;;;;;5.88;2.15;;;;;;;13.23;56.02;102509.53;4990213;28;20033;-69
2023/05/02 09:58:24;;;;;;;8.35;2.75;;;;;;;13.48;56.37;102513.63;5005672;28;20046;-68
2023/05/02 10:00:53;;;;;;;9.90;3.15;;;;;;;13.74;60.00;102514.81;4993394;28;20050;-69
2023/05/02 10:03:18;;;;;;;8.00;3.17;;;;;;;14.04;58.77;102509.38;5009759;28;20038;-69
2023/05/02 10:05:45;;;;;;;7.63;2.97;;;;;;;14.60;53.82;102509.63;5002946;28;20034;-69
2023/05/02 10:08:11;;;;;;;12.35;3.05;;;;;;;14.69;54.75;102507.19;4988644;28;20049;-69
2023/05/02 10:10:39;;;;;;;13.00;2.70;;;;;;;14.94;57.59;102509.22;4989086;28;20186;-69
2023/05/02 10:13:06;;;;;;;9.43;3.13;;;;;;;14.86;54.36;102510.69;4988121;28;20030;-69
2023/05/02 10:15:33;;;;;;;5.95;2.50;;;;;;;14.58;54.28;102508.81;4989623;28;20080;-69
2023/05/02 10:18:06;;;;;;;8.18;3.05;;;;;;;14.24;52.62;102517.22;4989462;28;20173;-70
2023/05/02 10:20:36;;;;;;;11.00;3.08;;;;;;;13.77;54.12;102526.44;4988624;28;20430;-70
2023/05/02 10:23:02;;;;;;;6.00;2.28;;;;;;;13.44;55.99;102521.09;4987785;28;20038;-69
2023/05/02 10:25:28;;;;;;;5.82;2.30;;;;;;;13.36;55.22;102517.03;4989045;28;20145;-69
2023/05/02 10:27:58;;;;;;;6.45;2.75;;;;;;;13.41;54.30;102518.53;4989389;28;20038;-70
2023/05/02 10:30:25;;;;;;;8.23;2.65;;;;;;;13.50;54.92;102526.19;5004148;28;20038;-69
2023/05/02 10:32:58;;;;;;;5.95;2.45;;;;;;;13.28;53.44;102528.41;4989786;28;20027;-69
2023/05/02 10:35:25;;;;;;;5.13;2.47;;;;;;;13.24;56.41;102533.19;4988575;28;20069;-69
2023/05/02 10:37:51;;;;;;;6.38;2.63;;;;;;;13.27;52.98;102532.09;4988720;28;20117;-69
2023/05/02 10:40:17;;;;;;;5.20;2.33;;;;;;;13.20;53.88;102534.28;4989567;28;20532;-69
2023/05/02 10:42:46;;;;;;;8.45;2.45;;;;;;;13.32;54.36;102530.00;4989031;28;20069;-69
2023/05/02 10:45:29;;;;;;;6.20;2.35;;;;;;;13.76;57.24;102523.81;4988765;28;20057;-68
2023/05/02 10:48:11;;;;;;;;;;;;;;;14.20;56.59;102526.59;4989369;28;20038;-69
2023/05/02 10:50:57;;;;;;;10.60;2.78;;;;;;;14.71;53.58;102518.03;4988390;28;20016;-68
2023/05/02 10:53:26;;;;;;;6.85;1.83;;;;;;;14.87;54.33;102516.06;4987916;28;20336;-68
2023/05/02 10:56:11;;;;;;;5.75;1.85;;;;;;;15.46;52.97;102513.16;4998966;28;20073;-69
2023/05/02 10:58:37;;;;;;;3.22;2.13;;;;;;;14.92;48.38;102526.72;5001575;28;20042;-68
2023/05/02 11:01:27;;;;;;;4.78;1.80;;;;;;;14.49;52.38;102523.97;4993576;28;20087;-68
2023/05/02 11:03:57;;;;;;;4.95;2.00;;;;;;;15.14;51.54;102524.38;5008170;28;20049;-69
2023/05/02 11:06:27;;;;;;;6.97;2.42;;;;;;;16.06;46.95;102518.25;4994566;28;20092;-69
2023/05/02 11:09:12;;;;;;;7.75;2.40;;;;;;;16.23;46.96;102525.34;4988277;28;20034;-69
2023/05/02 11:11:41;;;;;;;12.38;2.80;;;;;;;15.98;46.27;102534.38;4987884;28;20044;-69
2023/05/02 11:14:08;;;;;;;11.57;2.30;;;;;;;15.54;46.06;102536.34;4988324;28;20036;-66
2023/05/02 11:16:58;;;;;;;6.10;2.58;;;;;;;15.08;49.38;102543.09;4988094;28;20038;-66
2023/05/02 11:19:24;;;;;;;4.43;2.45;;;;;;;14.79;47.19;102540.34;4988450;28;20049;-68
2023/05/02 11:21:53;;;;;;;6.95;2.63;;;;;;;14.40;48.04;102546.41;4986253;28;20040;-68
2023/05/02 11:24:38;;;;;;;6.13;2.42;;;;;;;14.66;50.64;102539.34;4987566;28;20049;-68
2023/05/02 11:27:38;;;;;;;7.30;2.70;;;;;;;14.90;49.31;102536.94;4987968;28;20073;-69
2023/05/02 11:30:08;;;;;;;6.35;2.97;;;;;;;14.72;46.81;102547.19;4988085;28;20112;-68